Time;durP1;ratioP1;P1;durP2;ratioP2;P2;SDS_P1;SDS_P2;PMS_P1;PMS_P2;Temp;Humidity;BMP_temperature;BMP_pressure;BME280_temperature;BME280_humidity;BME280_pressure;Samples;Min_cycle;Max_cycle;Signal;HPM_P1;HPM_P2
2024/01/03 00:00:34;;;;;;;18.80;2.53;;;11.60;99.90;;;;;;7279577;19;20180;-79
2024/01/03 00:03:00;;;;;;;14.80;2.23;;;11.60;99.90;;;;;;7280153;19;20199;-80
2024/01/03 00:05:35;;;;;;;15.80;2.97;;;11.60;99.90;;;;;;7281976;19;20208;-79
2024/01/03 00:08:01;;;;;;;15.07;2.10;;;11.70;99.90;;;;;;7280788;19;20718;-79
2024/01/03 00:10:45;;;;;;;18.43;2.60;;;11.70;99.90;;;;;;7280032;19;20192;-80
2024/01/03 00:13:29;;;;;;;17.37;2.67;;;11.70;99.90;;;;;;7285870;19;20202;-80
2024/01/03 00:16:04;;;;;;;20.33;2.40;;;11.70;99.90;;;;;;7184081;19;2004567;-79
2024/01/03 00:18:53;;;;;;;17.50;2.57;;;11.60;99.90;;;;;;7284513;19;20230;-80
2024/01/03 00:21:25;;;;;;;15.70;2.73;;;11.60;99.90;;;;;;7185232;19;2004476;-86
2024/01/03 00:23:56;;;;;;;18.23;2.97;;;11.60;99.90;;;;;;7286185;19;20199;-87
2024/01/03 00:26:26;;;;;;;19.30;2.63;;;11.60;99.90;;;;;;7287612;19;20196;-86
2024/01/03 00:28:52;;;;;;;18.37;2.23;;;11.70;99.90;;;;;;7287481;19;20200;-86
2024/01/03 00:31:41;;;;;;;18.30;2.83;;;11.60;99.90;;;;;;7284719;19;20641;-87
2024/01/03 00:34:22;;;;;;;17.67;2.27;;;11.60;99.90;;;;;;7286506;19;20216;-87
2024/01/03 00:36:55;;;;;;;15.90;2.20;;;11.70;99.90;;;;;;7182618;19;2004620;-87
2024/01/03 00:39:26;;;;;;;12.37;1.77;;;11.70;99.90;;;;;;7284866;19;20266;-86
2024/01/03 00:41:51;;;;;;;16.70;2.43;;;11.70;99.90;;;;;;7285312;19;20200;-87
2024/01/03 00:44:17;;;;;;;16.37;1.97;;;11.70;99.90;;;;;;7283957;19;20594;-86
2024/01/03 00:46:44;;;;;;;13.50;1.83;;;11.60;99.90;;;;;;7305887;19;20227;-83
2024/01/03 00:49:10;;;;;;;14.37;1.97;;;11.60;99.90;;;;;;7310736;19;20198;-86
2024/01/03 00:51:36;;;;;;;9.80;1.40;;;11.60;99.90;;;;;;7287377;19;20267;-87
2024/01/03 00:54:02;;;;;;;12.80;1.87;;;11.50;99.90;;;;;;7285055;19;20199;-86
2024/01/03 00:56:28;;;;;;;12.40;1.67;;;11.50;99.90;;;;;;7284150;19;20216;-87
2024/01/03 00:58:54;;;;;;;13.50;1.60;;;11.60;99.90;;;;;;7286946;19;20200;-86
2024/01/03 01:01:20;;;;;;;14.40;1.70;;;11.50;99.90;;;;;;7285348;19;20279;-86
2024/01/03 01:03:46;;;;;;;11.73;1.80;;;11.50;99.90;;;;;;7285161;19;20190;-86
2024/01/03 01:06:12;;;;;;;12.03;1.70;;;11.50;99.90;;;;;;7309369;19;20192;-86
2024/01/03 01:08:38;;;;;;;11.97;1.60;;;11.40;99.90;;;;;;7285696;19;20327;-86
2024/01/03 01:11:04;;;;;;;13.80;1.63;;;11.40;99.90;;;;;;7284593;19;21051;-86
2024/01/03 01:13:29;;;;;;;14.40;2.13;;;11.40;99.90;;;;;;7285250;19;20190;-85
2024/01/03 01:15:55;;;;;;;15.67;2.20;;;11.40;99.90;;;;;;7285247;19;21550;-86
2024/01/03 01:18:21;;;;;;;14.20;2.07;;;11.40;99.90;;;;;;7285556;19;20201;-86
2024/01/03 01:20:47;;;;;;;15.87;1.87;;;11.30;99.90;;;;;;7284985;19;20194;-86
2024/01/03 01:23:14;;;;;;;14.60;1.77;;;11.30;99.90;;;;;;7303633;19;20193;-84
2024/01/03 01:25:40;;;;;;;12.27;2.10;;;11.30;99.90;;;;;;7316107;19;20195;-87
2024/01/03 01:28:06;;;;;;;17.33;1.90;;;11.20;99.90;;;;;;7284113;19;20199;-88
2024/01/03 01:30:32;;;;;;;12.53;2.07;;;11.20;99.90;;;;;;7283985;19;20194;-88
2024/01/03 01:32:58;;;;;;;16.07;2.03;;;11.20;99.90;;;;;;7285564;19;20220;-87
2024/01/03 01:35:24;;;;;;;9.30;1.43;;;11.10;99.90;;;;;;7284003;19;20195;-88
2024/01/03 01:37:50;;;;;;;17.57;1.93;;;11.10;99.90;;;;;;7283948;19;20195;-88
2024/01/03 01:40:15;;;;;;;15.50;2.40;;;11.10;99.90;;;;;;7284928;19;20195;-87
2024/01/03 01:42:43;;;;;;;13.43;1.97;;;11.20;99.90;;;;;;7304906;19;20191;-88
2024/01/03 01:45:09;;;;;;;13.97;2.03;;;11.40;99.90;;;;;;7284519;19;20270;-86
2024/01/03 01:47:37;;;;;;;14.80;2.03;;;11.40;99.90;;;;;;7284536;19;20198;-88
2024/01/03 01:50:03;;;;;;;15.93;1.90;;;11.40;99.90;;;;;;7283069;19;20231;-88
2024/01/03 01:52:29;;;;;;;11.63;1.80;;;11.40;99.90;;;;;;7284313;19;20195;-88
2024/01/03 01:54:55;;;;;;;15.67;2.00;;;11.40;99.90;;;;;;7283057;19;20898;-87
2024/01/03 01:57:20;;;;;;;15.17;2.60;;;11.40;99.90;;;;;;7283882;19;20195;-88
2024/01/03 01:59:47;;;;;;;13.07;2.07;;;11.40;99.90;;;;;;7284397;19;20204;-87
2024/01/03 02:02:13;;;;;;;17.67;2.10;;;11.30;99.90;;;;;;7300870;19;20210;-85
2024/01/03 02:04:40;;;;;;;15.93;2.50;;;11.20;99.90;;;;;;7300082;19;20190;-87
2024/01/03 02:07:07;;;;;;;18.53;2.20;;;11.20;99.90;;;;;;7281578;19;20210;-88
2024/01/03 02:09:32;;;;;;;16.37;2.30;;;11.30;99.90;;;;;;7283345;19;20188;-88
2024/01/03 02:11:58;;;;;;;18.93;2.47;;;11.30;99.90;;;;;;7282764;19;20208;-88
2024/01/03 02:14:24;;;;;;;13.67;2.03;;;11.30;99.90;;;;;;7283694;19;20190;-87
2024/01/03 02:16:50;;;;;;;19.10;2.47;;;11.30;99.90;;;;;;7281542;19;20229;-87
2024/01/03 02:19:15;;;;;;;14.53;2.17;;;11.40;99.90;;;;;;7283560;19;20563;-86
2024/01/03 02:21:44;;;;;;;12.43;1.87;;;11.40;99.90;;;;;;7294029;19;20210;-87
2024/01/03 02:24:09;;;;;;;17.30;2.27;;;11.40;99.90;;;;;;7296372;19;20188;-88
2024/01/03 02:26:35;;;;;;;11.73;1.60;;;11.40;99.90;;;;;;7282392;19;20195;-87
2024/01/03 02:29:01;;;;;;;15.40;1.93;;;11.30;99.90;;;;;;7280813;19;20897;-88
2024/01/03 02:31:27;;;;;;;14.67;1.83;;;11.20;99.90;;;;;;7279235;19;20197;-87
2024/01/03 02:33:52;;;;;;;14.40;1.80;;;11.10;99.90;;;;;;7281083;19;20199;-87
2024/01/03 02:36:19;;;;;;;17.83;1.97;;;11.10;99.90;;;;;;7279401;19;20191;-87
2024/01/03 02:38:49;;;;;;;10.00;2.10;;;11.10;99.90;;;;;;7285537;19;20187;-87
2024/01/03 02:41:15;;;;;;;20.47;2.23;;;11.00;99.90;;;;;;7281638;19;20258;-88
2024/01/03 02:43:40;;;;;;;11.37;1.70;;;11.10;99.90;;;;;;7303734;19;20319;-88
2024/01/03 02:46:06;;;;;;;17.30;1.80;;;11.10;99.90;;;;;;7282849;19;20212;-87
2024/01/03 02:48:32;;;;;;;17.07;2.37;;;11.10;99.90;;;;;;7283141;19;20188;-88
2024/01/03 02:50:58;;;;;;;13.07;1.87;;;11.10;99.90;;;;;;7289725;19;20217;-87
2024/01/03 02:53:23;;;;;;;17.47;2.67;;;11.20;99.90;;;;;;7293647;19;20267;-87
2024/01/03 02:55:49;;;;;;;16.37;2.23;;;11.30;99.90;;;;;;7281568;19;20698;-88
2024/01/03 02:58:15;;;;;;;17.17;1.90;;;11.30;99.90;;;;;;7282002;19;20180;-87
2024/01/03 03:00:41;;;;;;;14.67;2.40;;;11.30;99.90;;;;;;7304427;19;20624;-87
2024/01/03 03:03:07;;;;;;;15.50;2.20;;;11.40;99.90;;;;;;7282756;19;20191;-88
2024/01/03 03:05:32;;;;;;;19.17;2.47;;;11.30;99.90;;;;;;7288344;19;22011;-86
2024/01/03 03:07:58;;;;;;;17.30;2.60;;;11.30;99.90;;;;;;7289057;19;20187;-86
2024/01/03 03:10:24;;;;;;;23.13;3.37;;;11.30;99.90;;;;;;7293281;19;20199;-86
2024/01/03 03:12:50;;;;;;;20.30;2.90;;;11.30;99.90;;;;;;7296131;19;20194;-87
2024/01/03 03:15:16;;;;;;;21.40;2.97;;;11.30;99.90;;;;;;7286622;19;20207;-86
2024/01/03 03:17:41;;;;;;;22.13;2.63;;;11.20;99.90;;;;;;7302378;19;20196;-88
2024/01/03 03:20:08;;;;;;;15.93;2.07;;;11.20;99.90;;;;;;7282106;19;20661;-87
2024/01/03 03:22:33;;;;;;;21.17;2.70;;;11.10;99.90;;;;;;7281360;19;20195;-88
2024/01/03 03:24:59;;;;;;;22.13;2.67;;;11.10;99.90;;;;;;7279559;19;20327;-88
2024/01/03 03:27:25;;;;;;;16.90;2.57;;;11.00;99.90;;;;;;7280762;19;20687;-88
2024/01/03 03:29:52;;;;;;;22.13;3.00;;;10.90;99.90;;;;;;7279414;19;20298;-87
2024/01/03 03:32:17;;;;;;;16.07;2.37;;;10.90;99.90;;;;;;7280325;19;20213;-87
2024/01/03 03:34:43;;;;;;;19.47;2.40;;;10.90;99.90;;;;;;7299930;19;20650;-84
2024/01/03 03:37:09;;;;;;;20.40;3.13;;;10.90;99.90;;;;;;7291010;19;20188;-88
2024/01/03 03:39:35;;;;;;;23.70;2.70;;;10.90;99.90;;;;;;7281795;19;20195;-88
2024/01/03 03:42:01;;;;;;;21.00;2.97;;;10.90;99.90;;;;;;7279800;19;20212;-87
2024/01/03 03:44:27;;;;;;;23.33;3.07;;;11.00;99.90;;;;;;7279346;19;20979;-87
2024/01/03 03:46:53;;;;;;;19.90;2.83;;;11.00;99.90;;;;;;7278958;19;20194;-88
2024/01/03 03:49:18;;;;;;;26.00;3.73;;;11.10;99.90;;;;;;7280732;19;20534;-87
2024/01/03 03:51:44;;;;;;;26.27;2.70;;;11.10;99.90;;;;;;7287125;19;20272;-86
2024/01/03 03:54:10;;;;;;;20.20;2.73;;;11.10;99.90;;;;;;7300939;19;20220;-87
2024/01/03 03:56:36;;;;;;;26.23;3.10;;;11.10;99.90;;;;;;7278196;19;20611;-87
2024/01/03 03:59:01;;;;;;;22.80;3.00;;;11.10;99.90;;;;;;7278634;19;20200;-88
2024/01/03 04:01:27;;;;;;;19.20;2.50;;;11.10;99.90;;;;;;7278481;19;20223;-88
2024/01/03 04:03:53;;;;;;;24.00;2.57;;;11.00;99.90;;;;;;7278761;19;20661;-88
2024/01/03 04:06:19;;;;;;;20.00;2.80;;;11.00;99.90;;;;;;7280250;19;20819;-87
2024/01/03 04:08:46;;;;;;;22.60;3.33;;;11.00;99.90;;;;;;7279632;19;20273;-87
2024/01/03 04:11:12;;;;;;;29.63;3.67;;;11.00;99.90;;;;;;7301122;19;20643;-87
2024/01/03 04:13:39;;;;;;;23.03;3.10;;;11.00;99.90;;;;;;7277273;19;20695;-87
2024/01/03 04:16:06;;;;;;;28.73;3.57;;;11.00;99.90;;;;;;7279070;19;20271;-87
2024/01/03 04:18:33;;;;;;;27.23;3.70;;;11.00;99.90;;;;;;7286332;19;20230;-88
2024/01/03 04:20:59;;;;;;;24.67;3.37;;;11.00;99.90;;;;;;7291042;19;20203;-88
2024/01/03 04:23:27;;;;;;;30.47;3.67;;;10.90;99.90;;;;;;7279918;19;20191;-88
2024/01/03 04:25:53;;;;;;;28.57;4.57;;;11.00;99.90;;;;;;7278016;19;20302;-87
2024/01/03 04:28:19;;;;;;;30.63;3.87;;;11.00;99.90;;;;;;7277501;19;20591;-87
2024/01/03 04:30:45;;;;;;;29.70;3.87;;;11.10;99.90;;;;;;7284147;19;20261;-88
2024/01/03 04:33:11;;;;;;;28.00;3.70;;;11.00;99.90;;;;;;7300603;19;20182;-88
2024/01/03 04:35:36;;;;;;;26.70;3.33;;;11.00;99.90;;;;;;7278359;19;20208;-88
2024/01/03 04:38:03;;;;;;;26.80;3.70;;;11.00;99.90;;;;;;7278957;19;20203;-87
2024/01/03 04:40:32;;;;;;;27.80;3.43;;;11.10;99.90;;;;;;7279858;19;20191;-88
2024/01/03 04:42:59;;;;;;;28.43;3.40;;;11.00;99.90;;;;;;7279085;19;20211;-88
2024/01/03 04:45:24;;;;;;;21.20;3.43;;;11.00;99.90;;;;;;7277675;19;20299;-88
2024/01/03 04:47:51;;;;;;;26.73;3.30;;;11.00;99.90;;;;;;7279925;19;20550;-88
2024/01/03 04:50:17;;;;;;;28.57;3.53;;;11.00;99.90;;;;;;7277403;19;20187;-88
2024/01/03 04:52:43;;;;;;;25.70;3.10;;;11.00;99.90;;;;;;7297849;19;20190;-81
2024/01/03 04:55:09;;;;;;;24.40;3.13;;;11.00;99.90;;;;;;7275934;19;20337;-81
2024/01/03 04:57:35;;;;;;;23.63;3.63;;;10.90;99.90;;;;;;7278726;19;20219;-81
2024/01/03 05:00:03;;;;;;;25.77;3.83;;;10.90;99.90;;;;;;7285361;19;20182;-81
2024/01/03 05:02:28;;;;;;;24.10;3.37;;;10.90;99.90;;;;;;7282516;19;20191;-81
2024/01/03 05:04:54;;;;;;;17.77;2.70;;;10.90;99.90;;;;;;7280765;19;20198;-81
2024/01/03 05:07:20;;;;;;;21.67;3.10;;;10.90;99.90;;;;;;7281253;19;20187;-81
2024/01/03 05:09:46;;;;;;;21.97;3.10;;;10.90;99.90;;;;;;7284257;19;20183;-81
2024/01/03 05:12:11;;;;;;;26.70;3.17;;;10.90;99.90;;;;;;7302193;19;20597;-81
2024/01/03 05:14:37;;;;;;;23.10;3.07;;;11.00;99.90;;;;;;7282240;19;20186;-81
2024/01/03 05:17:03;;;;;;;29.20;3.50;;;11.00;99.90;;;;;;7277750;19;21358;-81
2024/01/03 05:19:29;;;;;;;25.30;3.10;;;11.10;99.90;;;;;;7280211;19;20549;-82
2024/01/03 05:21:54;;;;;;;24.10;3.30;;;11.10;99.90;;;;;;7281171;19;20191;-82
2024/01/03 05:24:20;;;;;;;25.57;3.30;;;11.20;99.90;;;;;;7279768;19;20580;-81
2024/01/03 05:26:46;;;;;;;23.30;3.27;;;11.20;99.90;;;;;;7281817;19;20611;-81
2024/01/03 05:29:12;;;;;;;22.00;3.53;;;11.30;99.90;;;;;;7302583;19;20203;-81
2024/01/03 05:31:38;;;;;;;26.27;3.73;;;11.30;99.90;;;;;;7280157;19;20191;-81
2024/01/03 05:34:05;;;;;;;25.87;3.80;;;11.40;99.90;;;;;;7282905;19;20199;-81
2024/01/03 05:36:31;;;;;;;23.93;3.23;;;11.50;99.90;;;;;;7281845;19;20261;-81
2024/01/03 05:38:56;;;;;;;30.07;3.33;;;11.50;99.90;;;;;;7282180;19;20704;-80
2024/01/03 05:41:22;;;;;;;22.53;3.00;;;11.50;99.90;;;;;;7281937;19;20182;-81
2024/01/03 05:43:48;;;;;;;22.77;2.93;;;11.50;99.90;;;;;;7281520;19;20773;-81
2024/01/03 05:46:13;;;;;;;30.33;3.33;;;11.40;99.90;;;;;;7302280;19;20600;-81
2024/01/03 05:48:39;;;;;;;25.93;3.17;;;11.40;99.90;;;;;;7293045;19;20204;-81
2024/01/03 05:51:06;;;;;;;27.50;3.60;;;11.30;99.90;;;;;;7280409;19;20234;-80
2024/01/03 05:53:32;;;;;;;21.67;3.10;;;11.30;99.90;;;;;;7284264;19;20189;-80
2024/01/03 05:55:58;;;;;;;26.10;3.17;;;11.30;99.90;;;;;;7281550;19;20194;-80
2024/01/03 05:58:24;;;;;;;19.27;2.83;;;11.10;99.90;;;;;;7282619;19;20586;-80
2024/01/03 06:00:49;;;;;;;23.03;2.90;;;10.90;99.90;;;;;;7282520;19;20186;-80
2024/01/03 06:03:15;;;;;;;23.03;2.57;;;10.80;99.90;;;;;;7286170;19;20678;-80
2024/01/03 06:05:41;;;;;;;18.90;2.27;;;10.70;99.90;;;;;;7304798;19;20653;-80
2024/01/03 06:08:07;;;;;;;15.50;1.97;;;10.60;99.90;;;;;;7280683;19;20582;-80
2024/01/03 06:10:33;;;;;;;17.33;2.13;;;10.60;99.90;;;;;;7281128;19;20188;-79
2024/01/03 06:12:59;;;;;;;13.70;2.10;;;10.60;99.90;;;;;;7286536;19;20197;-80
2024/01/03 06:15:25;;;;;;;18.97;2.50;;;10.60;99.90;;;;;;7288580;19;20197;-79
2024/01/03 06:17:50;;;;;;;20.97;3.00;;;10.70;99.90;;;;;;7286568;19;20551;-80
2024/01/03 06:20:16;;;;;;;33.13;3.80;;;10.80;99.90;;;;;;7284272;19;20199;-79
2024/01/03 06:22:42;;;;;;;23.77;3.20;;;10.90;99.90;;;;;;7304758;19;20553;-79
2024/01/03 06:25:08;;;;;;;22.53;3.47;;;10.90;99.90;;;;;;7282923;19;20236;-79
2024/01/03 06:27:34;;;;;;;17.97;2.93;;;11.00;99.90;;;;;;7282382;19;20695;-85
2024/01/03 06:29:59;;;;;;;21.97;3.00;;;10.90;99.90;;;;;;7280240;19;20258;-86
2024/01/03 06:32:30;;;;;;;20.37;3.00;;;10.90;99.90;;;;;;7283441;19;20649;-80
2024/01/03 06:34:55;;;;;;;20.73;2.73;;;11.00;99.90;;;;;;7283952;19;20220;-87
2024/01/03 06:37:21;;;;;;;23.87;2.37;;;10.90;99.90;;;;;;7281254;19;20593;-89
2024/01/03 06:39:47;;;;;;;20.67;2.93;;;10.80;99.90;;;;;;7282237;19;20191;-89
2024/01/03 06:42:13;;;;;;;20.40;2.10;;;10.80;99.90;;;;;;7305202;19;20236;-89
2024/01/03 06:44:38;;;;;;;17.30;2.67;;;10.90;99.90;;;;;;7283049;19;20593;-89
2024/01/03 06:47:04;;;;;;;19.97;2.00;;;10.90;99.90;;;;;;7280461;19;20726;-81
2024/01/03 06:49:30;;;;;;;13.40;2.00;;;10.80;99.90;;;;;;7279880;19;20203;-81
2024/01/03 06:51:58;;;;;;;19.00;2.80;;;10.70;99.90;;;;;;7278732;19;20649;-81
2024/01/03 06:54:24;;;;;;;17.00;2.50;;;10.60;99.90;;;;;;7280069;19;20198;-81
2024/01/03 06:56:50;;;;;;;20.53;2.87;;;10.60;99.90;;;;;;7278925;19;20190;-81
2024/01/03 06:59:15;;;;;;;19.90;2.10;;;10.50;99.90;;;;;;7282546;19;20190;-81
2024/01/03 07:01:41;;;;;;;16.67;2.07;;;10.50;99.90;;;;;;7301983;19;20551;-81
2024/01/03 07:04:07;;;;;;;12.80;2.00;;;10.50;99.90;;;;;;7278603;19;20178;-81
2024/01/03 07:06:33;;;;;;;13.67;1.77;;;10.60;99.90;;;;;;7279068;19;20558;-81
2024/01/03 07:08:58;;;;;;;14.57;1.83;;;10.60;99.90;;;;;;7278901;19;20186;-81
2024/01/03 07:11:24;;;;;;;21.20;2.83;;;10.60;99.90;;;;;;7278156;19;20760;-81
2024/01/03 07:13:50;;;;;;;21.13;2.30;;;10.60;99.90;;;;;;7280158;19;20194;-82
2024/01/03 07:16:16;;;;;;;13.90;1.70;;;10.60;99.90;;;;;;7282483;19;20543;-82
2024/01/03 07:18:42;;;;;;;15.53;2.23;;;10.60;99.90;;;;;;7301910;19;21179;-81
2024/01/03 07:21:08;;;;;;;12.87;2.37;;;10.60;99.90;;;;;;7279169;19;20208;-81
2024/01/03 07:23:35;;;;;;;15.17;2.00;;;10.70;99.90;;;;;;7278042;19;20204;-81
2024/01/03 07:26:01;;;;;;;13.93;1.77;;;10.70;99.90;;;;;;7277297;19;20215;-81
2024/01/03 07:28:27;;;;;;;15.20;2.00;;;10.70;99.90;;;;;;7277575;19;20199;-81
2024/01/03 07:30:52;;;;;;;16.17;2.27;;;10.70;99.90;;;;;;7277399;19;20229;-81
2024/01/03 07:33:18;;;;;;;16.13;2.53;;;10.70;99.90;;;;;;7281592;19;20217;-88
2024/01/03 07:35:44;;;;;;;16.10;2.20;;;10.70;99.90;;;;;;7300578;19;20225;-85
2024/01/03 07:38:10;;;;;;;16.17;2.33;;;10.80;99.90;;;;;;7292386;19;20175;-88
2024/01/03 07:40:36;;;;;;;21.40;2.27;;;10.80;99.90;;;;;;7283248;19;20206;-89
2024/01/03 07:43:01;;;;;;;15.10;2.20;;;10.80;99.90;;;;;;7282493;19;20187;-89
2024/01/03 07:45:28;;;;;;;19.43;2.80;;;10.90;99.90;;;;;;7281353;19;20188;-88
2024/01/03 07:47:54;;;;;;;18.93;2.57;;;11.00;99.90;;;;;;7281180;19;20178;-89
2024/01/03 07:50:20;;;;;;;15.90;2.50;;;11.00;99.90;;;;;;7283397;19;20202;-89
2024/01/03 07:52:45;;;;;;;19.87;2.37;;;11.10;99.90;;;;;;7300965;19;20194;-88
2024/01/03 07:55:12;;;;;;;18.53;2.50;;;11.20;99.90;;;;;;7302598;19;20192;-89
2024/01/03 07:57:38;;;;;;;19.07;2.70;;;11.10;99.90;;;;;;7281480;19;20514;-81
2024/01/03 08:00:05;;;;;;;21.40;3.07;;;11.00;99.90;;;;;;7280629;19;20202;-81
2024/01/03 08:02:31;;;;;;;24.13;2.77;;;11.10;99.90;;;;;;7278865;19;20209;-80
2024/01/03 08:04:57;;;;;;;22.23;2.83;;;11.10;99.90;;;;;;7278764;19;20694;-81
2024/01/03 08:07:23;;;;;;;17.77;2.60;;;11.20;99.90;;;;;;7279467;19;20194;-81
2024/01/03 08:09:50;;;;;;;19.50;2.77;;;11.20;99.90;;;;;;7279948;19;20612;-81
2024/01/03 08:12:16;;;;;;;22.23;2.87;;;11.30;99.90;;;;;;7279592;19;20658;-80
2024/01/03 08:14:42;;;;;;;26.73;3.40;;;11.40;99.90;;;;;;7301374;19;20209;-80
2024/01/03 08:17:08;;;;;;;23.00;3.17;;;11.40;99.90;;;;;;7276719;19;20187;-81
2024/01/03 08:19:34;;;;;;;26.70;3.13;;;11.40;99.90;;;;;;7279508;19;20185;-81
2024/01/03 08:22:00;;;;;;;23.10;3.57;;;11.40;99.90;;;;;;7278554;19;20256;-81
2024/01/03 08:24:26;;;;;;;26.67;3.37;;;11.40;99.90;;;;;;7279698;19;20275;-80
2024/01/03 08:26:52;;;;;;;22.57;3.67;;;11.30;99.90;;;;;;7278572;19;20254;-80
2024/01/03 08:29:18;;;;;;;19.67;3.27;;;11.30;99.90;;;;;;7278385;19;20198;-80
2024/01/03 08:31:48;;;;;;;27.43;3.17;;;11.30;99.90;;;;;;7300442;19;20204;-80
2024/01/03 08:34:14;;;;;;;25.13;3.40;;;11.30;99.90;;;;;;7283335;19;20195;-85
2024/01/03 08:36:44;;;;;;;20.27;3.50;;;11.30;99.90;;;;;;7301411;19;20190;-85
2024/01/03 08:39:14;;;;;;;27.23;3.43;;;11.20;99.90;;;;;;7283089;19;20194;-85
2024/01/03 08:41:40;;;;;;;28.20;3.67;;;11.10;99.90;;;;;;7304278;19;20592;-84
2024/01/03 08:44:06;;;;;;;26.07;3.37;;;11.10;99.90;;;;;;7294107;19;20191;-85
2024/01/03 08:46:38;;;;;;;25.83;3.50;;;11.00;99.90;;;;;;7286730;19;20199;-85
2024/01/03 08:49:04;;;;;;;25.23;3.27;;;11.00;99.90;;;;;;7286547;19;20276;-84
2024/01/03 08:51:30;;;;;;;26.80;3.43;;;11.00;99.90;;;;;;7284834;19;20207;-84
2024/01/03 08:53:56;;;;;;;23.10;3.63;;;11.00;99.90;;;;;;7284378;19;20192;-85
2024/01/03 08:56:24;;;;;;;23.20;2.47;;;11.10;99.90;;;;;;7287002;19;20549;-85
2024/01/03 08:58:50;;;;;;;19.40;2.40;;;11.10;99.90;;;;;;7286725;19;20222;-82
2024/01/03 09:01:18;;;;;;;18.80;2.63;;;11.20;99.90;;;;;;7286673;19;20735;-82
2024/01/03 09:03:44;;;;;;;19.27;2.70;;;11.10;99.90;;;;;;7328468;19;20195;-81
2024/01/03 09:06:22;;;;;;;18.37;2.80;;;11.20;99.90;;;;;;7304241;19;20217;-82
2024/01/03 09:08:54;;;;;;;16.03;2.97;;;11.20;99.90;;;;;;7269419;19;20193;-82
2024/01/03 09:11:26;;;;;;;16.93;2.30;;;11.10;99.90;;;;;;7288380;19;20259;-81
2024/01/03 09:13:53;;;;;;;19.63;2.70;;;11.10;99.90;;;;;;7287342;19;20200;-81
2024/01/03 09:16:22;;;;;;;16.20;2.37;;;11.20;99.90;;;;;;7286435;19;20177;-82
2024/01/03 09:18:48;;;;;;;15.03;2.40;;;11.20;99.90;;;;;;7286067;19;20255;-82
2024/01/03 09:21:15;;;;;;;20.00;2.53;;;11.30;99.90;;;;;;7307510;19;20234;-82
2024/01/03 09:23:41;;;;;;;15.90;2.37;;;11.30;99.90;;;;;;7287343;19;20185;-82
2024/01/03 09:26:09;;;;;;;21.50;2.67;;;11.30;99.90;;;;;;7286156;19;20216;-83
2024/01/03 09:28:38;;;;;;;16.60;2.23;;;11.30;99.90;;;;;;7282571;19;20256;-82
2024/01/03 09:31:05;;;;;;;17.50;2.20;;;11.30;99.90;;;;;;7281502;19;20238;-82
2024/01/03 09:33:31;;;;;;;25.53;2.90;;;11.30;99.90;;;;;;7282779;19;20245;-82
2024/01/03 09:35:57;;;;;;;18.60;2.90;;;11.20;99.90;;;;;;7281706;19;20188;-82
2024/01/03 09:38:23;;;;;;;22.80;3.07;;;11.10;99.90;;;;;;7282305;19;20821;-83
2024/01/03 09:40:49;;;;;;;18.07;2.70;;;11.10;99.90;;;;;;7282680;19;20183;-82
2024/01/03 09:43:16;;;;;;;20.40;3.13;;;11.20;99.90;;;;;;7288737;19;20190;-83
2024/01/03 09:45:42;;;;;;;20.13;2.77;;;11.30;99.90;;;;;;7304640;19;20195;-83
2024/01/03 09:48:10;;;;;;;18.30;2.80;;;11.40;99.90;;;;;;7282680;19;20188;-82
2024/01/03 09:50:37;;;;;;;19.60;3.20;;;11.50;99.90;;;;;;7282310;19;20191;-82
2024/01/03 09:53:05;;;;;;;19.83;3.07;;;11.50;99.90;;;;;;7282650;19;20651;-85
2024/01/03 09:55:32;;;;;;;20.37;3.10;;;11.60;99.90;;;;;;7283123;19;20263;-82
2024/01/03 09:57:58;;;;;;;20.20;2.53;;;11.70;99.90;;;;;;7281551;19;20193;-82
2024/01/03 10:00:29;;;;;;;21.43;3.07;;;11.60;99.90;;;;;;7282964;19;20556;-82
2024/01/03 10:03:07;;;;;;;20.83;2.67;;;11.70;99.90;;;;;;7284485;19;20183;-81
2024/01/03 10:05:36;;;;;;;16.67;2.53;;;11.80;99.90;;;;;;7283228;19;20193;-84
2024/01/03 10:08:18;;;;;;;22.73;2.70;;;11.80;99.90;;;;;;7283351;19;20187;-84
2024/01/03 10:10:45;;;;;;;24.03;3.00;;;11.80;99.90;;;;;;7284279;19;20179;-84
2024/01/03 10:13:18;;;;;;;19.03;2.90;;;12.00;99.90;;;;;;7282938;19;20295;-85
2024/01/03 10:15:47;;;;;;;23.43;3.43;;;12.00;99.90;;;;;;7283488;19;20183;-85
2024/01/03 10:18:17;;;;;;;19.40;2.97;;;12.10;99.90;;;;;;7281172;19;20722;-82
2024/01/03 10:20:44;;;;;;;19.73;2.93;;;11.90;99.90;;;;;;7282893;19;20620;-82
2024/01/03 10:23:15;;;;;;;26.53;3.83;;;11.80;99.90;;;;;;7280305;19;20192;-82
2024/01/03 10:25:43;;;;;;;18.40;2.80;;;11.90;99.90;;;;;;7281831;19;20176;-82
2024/01/03 10:28:17;;;;;;;21.20;3.07;;;11.90;99.90;;;;;;7280974;19;20195;-81
2024/01/03 10:30:50;;;;;;;19.67;3.87;;;12.00;99.90;;;;;;7281534;19;20181;-82
2024/01/03 10:33:16;;;;;;;16.60;3.37;;;12.00;99.90;;;;;;7263162;19;20181;-81
2024/01/03 10:35:44;;;;;;;17.73;2.67;;;12.10;99.90;;;;;;7304069;19;20187;-80
2024/01/03 10:38:10;;;;;;;25.33;3.07;;;12.20;99.90;;;;;;7281575;19;20185;-82
2024/01/03 10:40:39;;;;;;;20.60;2.97;;;12.40;99.90;;;;;;7281237;19;20182;-82
2024/01/03 10:43:08;;;;;;;25.30;3.23;;;12.50;99.90;;;;;;7279749;19;20249;-81
2024/01/03 10:45:34;;;;;;;33.10;6.83;;;12.50;99.90;;;;;;7280023;19;20199;-80
2024/01/03 10:48:00;;;;;;;22.17;2.93;;;12.60;99.90;;;;;;7279143;19;20193;-80
2024/01/03 10:50:26;;;;;;;17.73;2.73;;;12.60;99.90;;;;;;7280893;19;20188;-81
2024/01/03 10:52:57;;;;;;;17.40;3.60;;;12.60;99.90;;;;;;7281613;19;20542;-81
2024/01/03 10:55:37;;;;;;;18.93;3.13;;;12.70;99.90;;;;;;7279774;19;20679;-81
2024/01/03 10:58:12;;;;;;;21.43;3.00;;;12.70;99.90;;;;;;7278608;19;20200;-81
2024/01/03 11:00:57;;;;;;;18.53;3.73;;;12.70;99.90;;;;;;7280444;19;20185;-81
2024/01/03 11:04:09;;;;;;;14.30;2.60;;;12.60;99.90;;;;;;7176919;19;2005306;-80
2024/01/03 11:06:38;;;;;;;24.60;3.73;;;12.60;99.90;;;;;;7176736;19;2004681;-81
2024/01/03 11:09:04;;;;;;;19.13;3.00;;;12.70;99.90;;;;;;7280316;19;20177;-81
2024/01/03 11:11:37;;;;;;;25.67;3.40;;;12.70;99.90;;;;;;7278504;19;20189;-81
2024/01/03 11:14:18;;;;;;;24.00;3.60;;;12.70;99.90;;;;;;7278519;19;20217;-81
2024/01/03 11:16:44;;;;;;;20.07;3.00;;;13.00;99.90;;;;;;7281562;19;20758;-80
2024/01/03 11:19:11;;;;;;;18.40;3.13;;;13.50;99.90;;;;;;7280335;19;20193;-81
2024/01/03 11:21:38;;;;;;;18.47;2.83;;;14.00;99.90;;;;;;7280139;19;20915;-81
2024/01/03 11:24:27;;;;;;;14.13;2.77;;;14.10;99.90;;;;;;7279757;19;20199;-81
2024/01/03 11:26:56;;;;;;;16.57;2.30;;;14.00;99.90;;;;;;7175748;19;2004685;-80
2024/01/03 11:29:46;;;;;;;13.00;2.77;;;13.90;99.90;;;;;;7279789;19;20201;-80
2024/01/03 11:32:13;;;;;;;17.93;3.00;;;13.70;99.90;;;;;;7279212;19;20184;-80
2024/01/03 11:34:47;;;;;;;16.37;2.47;;;13.40;99.90;;;;;;7279437;19;20202;-79
2024/01/03 11:37:16;;;;;;;20.93;2.47;;;13.20;99.90;;;;;;7278848;19;20214;-80
2024/01/03 11:39:45;;;;;;;16.40;2.30;;;13.00;99.90;;;;;;7278966;19;20756;-80
2024/01/03 11:42:30;;;;;;;19.63;2.37;;;13.00;99.90;;;;;;7280187;19;20181;-79
2024/01/03 11:45:12;;;;;;;13.03;2.47;;;13.00;99.90;;;;;;7177485;19;2004600;-80
2024/01/03 11:47:43;;;;;;;17.43;3.20;;;13.00;99.90;;;;;;7279285;19;20201;-79
2024/01/03 11:50:12;;;;;;;16.87;2.00;;;13.10;99.90;;;;;;7278702;19;20190;-79
2024/01/03 11:52:39;;;;;;;14.30;1.87;;;13.10;99.90;;;;;;7285323;19;20193;-79
2024/01/03 11:55:16;;;;;;;15.67;2.27;;;13.10;99.90;;;;;;7289706;19;20233;-79
2024/01/03 11:57:44;;;;;;;17.13;2.90;;;12.90;99.90;;;;;;7287847;19;20597;-80
2024/01/03 12:00:15;;;;;;;14.87;2.90;;;12.60;99.90;;;;;;7284437;19;20248;-79
2024/01/03 12:02:55;;;;;;;14.43;2.57;;;12.30;99.90;;;;;;7278891;19;20210;-79
2024/01/03 12:05:22;;;;;;;18.77;2.60;;;12.30;99.90;;;;;;7175314;19;2004812;-79
2024/01/03 12:07:49;;;;;;;17.00;2.77;;;12.30;99.90;;;;;;7282744;19;20196;-80
2024/01/03 12:10:16;;;;;;;15.50;2.37;;;12.30;99.90;;;;;;7303505;19;20192;-80
2024/01/03 12:12:43;;;;;;;15.93;2.63;;;12.30;99.90;;;;;;7307442;19;20231;-79
2024/01/03 12:15:21;;;;;;;18.50;2.50;;;12.40;99.90;;;;;;7284074;19;20230;-79
2024/01/03 12:17:47;;;;;;;15.47;2.30;;;12.50;99.90;;;;;;7261941;19;20197;-79
2024/01/03 12:20:14;;;;;;;18.03;2.80;;;12.30;99.90;;;;;;7307517;19;20215;-79
2024/01/03 12:22:40;;;;;;;18.17;2.47;;;12.40;99.90;;;;;;7284465;19;20184;-79
2024/01/03 12:25:07;;;;;;;18.53;2.57;;;12.30;99.90;;;;;;7284885;19;20537;-78
2024/01/03 12:27:33;;;;;;;19.70;2.77;;;12.30;99.90;;;;;;7284101;19;20193;-78
2024/01/03 12:30:19;;;;;;;15.33;2.20;;;12.30;99.90;;;;;;7284015;19;20724;-79
2024/01/03 12:32:46;;;;;;;17.53;2.70;;;12.40;99.90;;;;;;7285461;19;20358;-79
2024/01/03 12:35:13;;;;;;;17.67;2.77;;;12.50;99.90;;;;;;7285183;19;20714;-79
2024/01/03 12:37:47;;;;;;;20.10;3.30;;;12.50;99.90;;;;;;7282473;19;20185;-78